Pagina principale
METAR-TAF:

METAR-TAF

Aeroporti :

Aeroporto di Piacenza-San Damiano

Piacenza, Italia

latitudine: 44-55N, longitudine: 009-44E, altezza: 134 m

Osservazione

Il bollettino è stato emesso 7 ore e 55 minuti fa, alle 17:55 UTC
Vento 2 kt da est/sud-est
Temperature 5°C
Umidità 100%
Pressione 1025 hPa
Visibilità: 3000 m
foschia

METAR: LIMS 241755Z 12002KT 3000 BR NSC 05/05 Q1025 RMK BKN BKN090 VIS MIN 3000 WIND THR30 10003KT YLO

Ora: 02:50 (01:50 UTC)


TAF: mancante

Osservazioni e previsioni meteorologiche di più di 4000 aeroporti (messaggi METAR e TAF).

Le stazioni disponibili sono rappresentate dai dischi gialli e rossi sulla carta.

Puntare il mouse per vedere il nome della stazione.

Clicca sopra per visualizzare le osservazioni e previsioni meteorologiche.

Per cambiare la mappa : fare clic sui pulsanti verdi con una croce nera per ingrandire, il pulsante verde con un trattino per diminuire, o sulla freccia verde per le mappe adiacenti.


METAR-TAF: